sensor_id;sensor_type;location;lat;lon;timestamp;pressure;altitude;pressure_sealevel;temperature;humidity
36600;BME280;35385;55.668;37.508;2023-04-04T00:00:29;99166.50;;;9.84;100.00
36600;BME280;35385;55.668;37.508;2023-04-04T00:01:30;99169.28;;;9.82;100.00
36600;BME280;35385;55.668;37.508;2023-04-04T00:02:30;99158.91;;;9.79;100.00
36600;BME280;35385;55.668;37.508;2023-04-04T00:03:31;99164.66;;;9.84;100.00
36600;BME280;35385;55.668;37.508;2023-04-04T00:04:32;99083.63;;;9.36;100.00
36600;BME280;35385;55.668;37.508;2023-04-04T00:05:32;99169.88;;;9.86;100.00
36600;BME280;35385;55.668;37.508;2023-04-04T00:06:34;99148.75;;;9.73;100.00
36600;BME280;35385;55.668;37.508;2023-04-04T00:07:35;99160.31;;;9.83;100.00
36600;BME280;35385;55.668;37.508;2023-04-04T00:08:36;99114.41;;;9.49;100.00
36600;BME280;35385;55.668;37.508;2023-04-04T00:09:37;99168.06;;;9.86;100.00
36600;BME280;35385;55.668;37.508;2023-04-04T00:10:37;99164.41;;;9.87;100.00
36600;BME280;35385;55.668;37.508;2023-04-04T00:11:39;99160.59;;;9.80;100.00
36600;BME280;35385;55.668;37.508;2023-04-04T00:12:41;99168.31;;;9.83;100.00
36600;BME280;35385;55.668;37.508;2023-04-04T00:13:42;99163.81;;;9.84;100.00
36600;BME280;35385;55.668;37.508;2023-04-04T00:14:43;99134.97;;;9.68;100.00
36600;BME280;35385;55.668;37.508;2023-04-04T00:15:43;99171.75;;;9.95;100.00
36600;BME280;35385;55.668;37.508;2023-04-04T00:16:44;99169.91;;;9.96;100.00
36600;BME280;35385;55.668;37.508;2023-04-04T00:17:44;99169.78;;;9.97;100.00
36600;BME280;35385;55.668;37.508;2023-04-04T00:18:45;99155.41;;;9.79;100.00
36600;BME280;35385;55.668;37.508;2023-04-04T00:19:45;99167.75;;;9.80;100.00
36600;BME280;35385;55.668;37.508;2023-04-04T00:20:46;99165.47;;;9.75;100.00
36600;BME280;35385;55.668;37.508;2023-04-04T00:21:47;99170.56;;;9.78;100.00
36600;BME280;35385;55.668;37.508;2023-04-04T00:22:47;99128.47;;;9.51;100.00
36600;BME280;35385;55.668;37.508;2023-04-04T00:23:48;99167.56;;;9.72;100.00
36600;BME280;35385;55.668;37.508;2023-04-04T00:24:48;99168.53;;;9.71;100.00
36600;BME280;35385;55.668;37.508;2023-04-04T00:25:50;99168.16;;;9.75;100.00
36600;BME280;35385;55.668;37.508;2023-04-04T00:26:51;99114.69;;;9.46;100.00
36600;BME280;35385;55.668;37.508;2023-04-04T00:27:52;99118.78;;;9.50;100.00
36600;BME280;35385;55.668;37.508;2023-04-04T00:28:52;99167.75;;;9.80;100.00
36600;BME280;35385;55.668;37.508;2023-04-04T00:29:53;99168.31;;;9.83;100.00
36600;BME280;35385;55.668;37.508;2023-04-04T00:30:53;99173.78;;;9.82;100.00
36600;BME280;35385;55.668;37.508;2023-04-04T00:31:54;99168.59;;;9.80;100.00
36600;BME280;35385;55.668;37.508;2023-04-04T00:32:55;99160.72;;;9.79;100.00
36600;BME280;35385;55.668;37.508;2023-04-04T00:33:56;99161.25;;;9.73;100.00
36600;BME280;35385;55.668;37.508;2023-04-04T00:34:56;99131.56;;;9.56;100.00
36600;BME280;35385;55.668;37.508;2023-04-04T00:35:57;99166.34;;;9.76;100.00
36600;BME280;35385;55.668;37.508;2023-04-04T00:36:57;99161.72;;;9.78;100.00
36600;BME280;35385;55.668;37.508;2023-04-04T00:37:58;99102.31;;;9.45;100.00
36600;BME280;35385;55.668;37.508;2023-04-04T00:38:58;99163.41;;;9.79;100.00
36600;BME280;35385;55.668;37.508;2023-04-04T00:39:59;99154.81;;;9.75;100.00
36600;BME280;35385;55.668;37.508;2023-04-04T00:41:00;99165.34;;;9.77;100.00
36600;BME280;35385;55.668;37.508;2023-04-04T00:42:00;99153.50;;;9.70;100.00
36600;BME280;35385;55.668;37.508;2023-04-04T00:43:01;99115.41;;;9.48;100.00
36600;BME280;35385;55.668;37.508;2023-04-04T00:44:02;99121.69;;;9.47;100.00
36600;BME280;35385;55.668;37.508;2023-04-04T00:45:05;99158.84;;;9.70;100.00
36600;BME280;35385;55.668;37.508;2023-04-04T00:46:06;99161.38;;;9.71;100.00
36600;BME280;35385;55.668;37.508;2023-04-04T00:47:07;99117.22;;;9.48;100.00
36600;BME280;35385;55.668;37.508;2023-04-04T00:48:08;99161.38;;;9.71;100.00
36600;BME280;35385;55.668;37.508;2023-04-04T00:49:09;99162.22;;;9.72;100.00
36600;BME280;35385;55.668;37.508;2023-04-04T00:50:09;99153.50;;;9.70;100.00
36600;BME280;35385;55.668;37.508;2023-04-04T00:51:10;99158.41;;;9.65;100.00
36600;BME280;35385;55.668;37.508;2023-04-04T00:52:10;99153.59;;;9.58;100.00
36600;BME280;35385;55.668;37.508;2023-04-04T00:53:11;99158.34;;;9.55;100.00
36600;BME280;35385;55.668;37.508;2023-04-04T00:54:12;99149.00;;;9.61;100.00
36600;BME280;35385;55.668;37.508;2023-04-04T00:55:12;99161.88;;;9.55;100.00
36600;BME280;35385;55.668;37.508;2023-04-04T00:56:14;99109.25;;;9.27;100.00
36600;BME280;35385;55.668;37.508;2023-04-04T00:57:15;99154.84;;;9.54;100.00
36600;BME280;35385;55.668;37.508;2023-04-04T00:58:16;99153.59;;;9.58;100.00
36600;BME280;35385;55.668;37.508;2023-04-04T00:59:16;99072.41;;;9.11;100.00
36600;BME280;35385;55.668;37.508;2023-04-04T01:00:17;99154.13;;;9.52;100.00
36600;BME280;35385;55.668;37.508;2023-04-04T01:01:18;99155.13;;;9.51;100.00
36600;BME280;35385;55.668;37.508;2023-04-04T01:02:18;99151.78;;;9.38;100.00
36600;BME280;35385;55.668;37.508;2023-04-04T01:03:19;99105.81;;;9.15;100.00
36600;BME280;35385;55.668;37.508;2023-04-04T01:04:20;99151.53;;;9.41;100.00
36600;BME280;35385;55.668;37.508;2023-04-04T01:05:20;99143.53;;;9.41;100.00
36600;BME280;35385;55.668;37.508;2023-04-04T01:06:21;99107.84;;;9.23;100.00
36600;BME280;35385;55.668;37.508;2023-04-04T01:07:22;99157.63;;;9.53;100.00
36600;BME280;35385;55.668;37.508;2023-04-04T01:08:25;99146.28;;;9.51;100.00
36600;BME280;35385;55.668;37.508;2023-04-04T01:09:27;99153.88;;;9.55;100.00
36600;BME280;35385;55.668;37.508;2023-04-04T01:10:32;99159.19;;;9.55;100.00
36600;BME280;35385;55.668;37.508;2023-04-04T01:11:32;99155.91;;;9.42;100.00
36600;BME280;35385;55.668;37.508;2023-04-04T01:12:34;99094.72;;;8.90;100.00
36600;BME280;35385;55.668;37.508;2023-04-04T01:13:36;99147.72;;;9.34;100.00
36600;BME280;35385;55.668;37.508;2023-04-04T01:14:36;99144.59;;;9.29;100.00
36600;BME280;35385;55.668;37.508;2023-04-04T01:15:37;99152.34;;;9.32;100.00
36600;BME280;35385;55.668;37.508;2023-04-04T01:16:38;99161.94;;;9.44;100.00
36600;BME280;35385;55.668;37.508;2023-04-04T01:17:40;99157.59;;;9.43;100.00
36600;BME280;35385;55.668;37.508;2023-04-04T01:18:43;99099.72;;;9.04;100.00
36600;BME280;35385;55.668;37.508;2023-04-04T01:20:02;99116.41;;;9.06;100.00
36600;BME280;35385;55.668;37.508;2023-04-04T01:21:09;99104.06;;;9.05;100.00
36600;BME280;35385;55.668;37.508;2023-04-04T01:22:11;99106.19;;;9.11;100.00
36600;BME280;35385;55.668;37.508;2023-04-04T01:23:13;99152.50;;;9.40;100.00
36600;BME280;35385;55.668;37.508;2023-04-04T01:24:15;99155.38;;;9.48;100.00
36600;BME280;35385;55.668;37.508;2023-04-04T01:25:18;99147.25;;;9.50;100.00
36600;BME280;35385;55.668;37.508;2023-04-04T01:26:20;99159.31;;;9.54;100.00
36600;BME280;35385;55.668;37.508;2023-04-04T01:27:22;99116.00;;;9.31;100.00
36600;BME280;35385;55.668;37.508;2023-04-04T01:28:24;99142.13;;;9.37;100.00
36600;BME280;35385;55.668;37.508;2023-04-04T01:29:25;99154.47;;;9.38;100.00
36600;BME280;35385;55.668;37.508;2023-04-04T01:30:30;99155.25;;;9.29;100.00
36600;BME280;35385;55.668;37.508;2023-04-04T01:32:52;99158.19;;;9.26;100.00
36600;BME280;35385;55.668;37.508;2023-04-04T01:34:05;99154.63;;;9.16;100.00
36600;BME280;35385;55.668;37.508;2023-04-04T01:39:42;99146.75;;;9.14;100.00
36600;BME280;35385;55.668;37.508;2023-04-04T01:40:49;99144.22;;;9.13;100.00
36600;BME280;35385;55.668;37.508;2023-04-04T01:41:50;99063.69;;;8.68;100.00
36600;BME280;35385;55.668;37.508;2023-04-04T01:42:51;99157.47;;;9.24;100.00
36600;BME280;35385;55.668;37.508;2023-04-04T01:43:53;99104.56;;;8.99;100.00
36600;BME280;35385;55.668;37.508;2023-04-04T01:44:56;99149.94;;;9.29;100.00
36600;BME280;35385;55.668;37.508;2023-04-04T01:45:59;99152.22;;;9.34;100.00
36600;BME280;35385;55.668;37.508;2023-04-04T01:47:00;99149.69;;;9.32;100.00
36600;BME280;35385;55.668;37.508;2023-04-04T01:48:02;99151.50;;;9.32;100.00
36600;BME280;35385;55.668;37.508;2023-04-04T01:49:03;99149.94;;;9.29;100.00
36600;BME280;35385;55.668;37.508;2023-04-04T01:50:04;99153.06;;;9.34;100.00
36600;BME280;35385;55.668;37.508;2023-04-04T01:51:05;99137.28;;;9.21;100.00
36600;BME280;35385;55.668;37.508;2023-04-04T01:52:05;99135.72;;;9.19;100.00
36600;BME280;35385;55.668;37.508;2023-04-04T01:53:06;99118.34;;;9.04;100.00
36600;BME280;35385;55.668;37.508;2023-04-04T01:54:07;99114.13;;;9.01;100.00
36600;BME280;35385;55.668;37.508;2023-04-04T01:55:08;99144.22;;;9.13;100.00
36600;BME280;35385;55.668;37.508;2023-04-04T01:56:08;99146.56;;;9.06;100.00
36600;BME280;35385;55.668;37.508;2023-04-04T01:57:09;99157.09;;;9.08;100.00
36600;BME280;35385;55.668;37.508;2023-04-04T01:58:09;99141.38;;;9.05;100.00
36600;BME280;35385;55.668;37.508;2023-04-04T01:59:10;99155.47;;;9.16;100.00
36600;BME280;35385;55.668;37.508;2023-04-04T02:00:11;99141.09;;;9.08;100.00
36600;BME280;35385;55.668;37.508;2023-04-04T02:01:12;99148.38;;;9.06;100.00
36600;BME280;35385;55.668;37.508;2023-04-04T02:02:13;99132.19;;;8.98;100.00
36600;BME280;35385;55.668;37.508;2023-04-04T02:03:13;99141.41;;;9.14;100.00
36600;BME280;35385;55.668;37.508;2023-04-04T02:04:14;99151.56;;;9.20;100.00
36600;BME280;35385;55.668;37.508;2023-04-04T02:05:15;99155.81;;;9.23;100.00
36600;BME280;35385;55.668;37.508;2023-04-04T02:06:15;99145.41;;;9.20;100.00
36600;BME280;35385;55.668;37.508;2023-04-04T02:07:16;99104.81;;;8.96;100.00
36600;BME280;35385;55.668;37.508;2023-04-04T02:08:16;99104.38;;;8.91;100.00
36600;BME280;35385;55.668;37.508;2023-04-04T02:09:17;99111.13;;;8.95;100.00
36600;BME280;35385;55.668;37.508;2023-04-04T02:10:17;99147.34;;;9.18;100.00
36600;BME280;35385;55.668;37.508;2023-04-04T02:11:18;99147.22;;;9.19;100.00
36600;BME280;35385;55.668;37.508;2023-04-04T02:12:22;99152.97;;;9.25;100.00
36600;BME280;35385;55.668;37.508;2023-04-04T02:13:22;99152.53;;;9.19;100.00
36600;BME280;35385;55.668;37.508;2023-04-04T02:14:23;99148.44;;;9.15;100.00
36600;BME280;35385;55.668;37.508;2023-04-04T02:15:24;99105.69;;;8.75;100.00
36600;BME280;35385;55.668;37.508;2023-04-04T02:16:25;99153.38;;;8.99;100.00
36600;BME280;35385;55.668;37.508;2023-04-04T02:17:26;99148.28;;;8.96;100.00
36600;BME280;35385;55.668;37.508;2023-04-04T02:18:27;99129.09;;;8.93;100.00
36600;BME280;35385;55.668;37.508;2023-04-04T02:19:28;99138.94;;;9.02;100.00
36600;BME280;35385;55.668;37.508;2023-04-04T02:20:28;99147.28;;;9.08;100.00
36600;BME280;35385;55.668;37.508;2023-04-04T02:21:29;99086.31;;;8.73;100.00
36600;BME280;35385;55.668;37.508;2023-04-04T02:22:29;99147.78;;;9.02;100.00
36600;BME280;35385;55.668;37.508;2023-04-04T02:23:30;99146.28;;;9.09;100.00
36600;BME280;35385;55.668;37.508;2023-04-04T02:24:31;99147.13;;;9.10;100.00
36600;BME280;35385;55.668;37.508;2023-04-04T02:25:31;99148.44;;;9.15;100.00
36600;BME280;35385;55.668;37.508;2023-04-04T02:26:32;99154.88;;;9.13;100.00
36600;BME280;35385;55.668;37.508;2023-04-04T02:27:32;99107.25;;;8.78;100.00
36600;BME280;35385;55.668;37.508;2023-04-04T02:28:33;99150.91;;;9.07;100.00
36600;BME280;35385;55.668;37.508;2023-04-04T02:29:33;99148.56;;;8.93;100.00
36600;BME280;35385;55.668;37.508;2023-04-04T02:30:34;99148.03;;;8.99;100.00
36600;BME280;35385;55.668;37.508;2023-04-04T02:31:34;99150.91;;;9.07;100.00
36600;BME280;35385;55.668;37.508;2023-04-04T02:32:35;99145.06;;;9.13;100.00
36600;BME280;35385;55.668;37.508;2023-04-04T02:33:37;99135.00;;;9.17;100.00
36600;BME280;35385;55.668;37.508;2023-04-04T02:34:37;99146.81;;;9.24;100.00
36600;BME280;35385;55.668;37.508;2023-04-04T02:35:38;99148.50;;;9.25;100.00
36600;BME280;35385;55.668;37.508;2023-04-04T02:36:38;99137.78;;;9.15;100.00
36600;BME280;35385;55.668;37.508;2023-04-04T02:37:39;99140.50;;;9.25;100.00
36600;BME280;35385;55.668;37.508;2023-04-04T02:38:39;99147.97;;;9.31;100.00
36600;BME280;35385;55.668;37.508;2023-04-04T02:39:40;99147.84;;;9.33;100.00
36600;BME280;35385;55.668;37.508;2023-04-04T02:40:41;99128.88;;;9.26;100.00
36600;BME280;35385;55.668;37.508;2023-04-04T02:41:41;99138.03;;;9.33;100.00
36600;BME280;35385;55.668;37.508;2023-04-04T02:42:43;99107.75;;;9.13;100.00
36600;BME280;35385;55.668;37.508;2023-04-04T02:43:44;99135.38;;;9.33;100.00
36600;BME280;35385;55.668;37.508;2023-04-04T02:44:44;99142.97;;;9.38;100.00
36600;BME280;35385;55.668;37.508;2023-04-04T02:45:47;99142.13;;;9.37;100.00
36600;BME280;35385;55.668;37.508;2023-04-04T02:46:48;99142.41;;;9.34;100.00
36600;BME280;35385;55.668;37.508;2023-04-04T02:47:51;99133.69;;;9.32;100.00
36600;BME280;35385;55.668;37.508;2023-04-04T02:48:52;99148.16;;;9.39;100.00
36600;BME280;35385;55.668;37.508;2023-04-04T02:49:52;99108.34;;;9.17;100.00
36600;BME280;35385;55.668;37.508;2023-04-04T02:50:53;99135.13;;;9.36;100.00
36600;BME280;35385;55.668;37.508;2023-04-04T02:51:54;99133.13;;;9.38;100.00
36600;BME280;35385;55.668;37.508;2023-04-04T02:53:00;99095.03;;;9.17;100.00
36600;BME280;35385;55.668;37.508;2023-04-04T02:54:01;99139.59;;;9.36;100.00
36600;BME280;35385;55.668;37.508;2023-04-04T02:55:03;99130.56;;;9.27;100.00
36600;BME280;35385;55.668;37.508;2023-04-04T02:56:03;99137.91;;;9.35;100.00
36600;BME280;35385;55.668;37.508;2023-04-04T02:57:04;99138.34;;;9.40;100.00
36600;BME280;35385;55.668;37.508;2023-04-04T02:58:05;99132.50;;;9.25;100.00
36600;BME280;35385;55.668;37.508;2023-04-04T02:59:05;99133.03;;;9.19;100.00
36600;BME280;35385;55.668;37.508;2023-04-04T03:00:07;99139.59;;;9.15;100.00
36600;BME280;35385;55.668;37.508;2023-04-04T03:01:09;99124.72;;;8.92;100.00
36600;BME280;35385;55.668;37.508;2023-04-04T03:02:09;99124.44;;;8.95;100.00
36600;BME280;35385;55.668;37.508;2023-04-04T03:03:10;99141.88;;;8.99;100.00
36600;BME280;35385;55.668;37.508;2023-04-04T03:04:10;99110.09;;;8.65;100.00
36600;BME280;35385;55.668;37.508;2023-04-04T03:05:11;99144.34;;;8.91;100.00
36600;BME280;35385;55.668;37.508;2023-04-04T03:06:12;99144.66;;;8.97;100.00
36600;BME280;35385;55.668;37.508;2023-04-04T03:07:14;99145.97;;;9.03;100.00
36600;BME280;35385;55.668;37.508;2023-04-04T03:08:14;99110.34;;;8.83;100.00
36600;BME280;35385;55.668;37.508;2023-04-04T03:09:15;99141.16;;;8.97;100.00
36600;BME280;35385;55.668;37.508;2023-04-04T03:10:16;99149.41;;;8.94;100.00
36600;BME280;35385;55.668;37.508;2023-04-04T03:11:20;99143.56;;;9.00;100.00
36600;BME280;35385;55.668;37.508;2023-04-04T03:12:20;99103.44;;;8.80;100.00
36600;BME280;35385;55.668;37.508;2023-04-04T03:13:21;99148.03;;;8.99;100.00
36600;BME280;35385;55.668;37.508;2023-04-04T03:14:21;99152.00;;;8.84;100.00
36600;BME280;35385;55.668;37.508;2023-04-04T03:15:23;99134.06;;;8.65;100.00
36600;BME280;35385;55.668;37.508;2023-04-04T03:16:25;99107.81;;;8.61;100.00
36600;BME280;35385;55.668;37.508;2023-04-04T03:17:26;99155.72;;;8.93;100.00
36600;BME280;35385;55.668;37.508;2023-04-04T03:18:26;99140.72;;;8.92;100.00
36600;BME280;35385;55.668;37.508;2023-04-04T03:19:27;99133.44;;;8.94;100.00
36600;BME280;35385;55.668;37.508;2023-04-04T03:20:28;99129.88;;;9.04;100.00
36600;BME280;35385;55.668;37.508;2023-04-04T03:21:28;99152.66;;;9.18;100.00
36600;BME280;35385;55.668;37.508;2023-04-04T03:22:29;99145.66;;;9.17;100.00
36600;BME280;35385;55.668;37.508;2023-04-04T03:23:29;99152.41;;;9.21;100.00
36600;BME280;35385;55.668;37.508;2023-04-04T03:24:30;99134.03;;;9.18;100.00
36600;BME280;35385;55.668;37.508;2023-04-04T03:25:31;99132.06;;;9.20;100.00
36600;BME280;35385;55.668;37.508;2023-04-04T03:26:31;99141.34;;;9.26;100.00
36600;BME280;35385;55.668;37.508;2023-04-04T03:27:32;99143.63;;;9.30;100.00
36600;BME280;35385;55.668;37.508;2023-04-04T03:28:33;99138.75;;;9.35;100.00
36600;BME280;35385;55.668;37.508;2023-04-04T03:29:35;99153.34;;;9.41;100.00
36600;BME280;35385;55.668;37.508;2023-04-04T03:30:36;99138.56;;;9.27;100.00
36600;BME280;35385;55.668;37.508;2023-04-04T03:31:37;99137.56;;;9.28;100.00
36600;BME280;35385;55.668;37.508;2023-04-04T03:32:37;99148.44;;;9.36;100.00
36600;BME280;35385;55.668;37.508;2023-04-04T03:33:41;99141.28;;;9.37;100.00
36600;BME280;35385;55.668;37.508;2023-04-04T03:34:42;99153.34;;;9.41;100.00
36600;BME280;35385;55.668;37.508;2023-04-04T03:35:42;99130.13;;;9.22;100.00
36600;BME280;35385;55.668;37.508;2023-04-04T03:36:44;99158.19;;;9.26;100.00
36600;BME280;35385;55.668;37.508;2023-04-04T03:37:46;99154.28;;;9.30;100.00
36600;BME280;35385;55.668;37.508;2023-04-04T03:38:46;99138.13;;;9.22;100.00
36600;BME280;35385;55.668;37.508;2023-04-04T03:39:47;99140.25;;;9.28;100.00
36600;BME280;35385;55.668;37.508;2023-04-04T03:40:47;99145.69;;;9.27;100.00
36600;BME280;35385;55.668;37.508;2023-04-04T03:41:48;99148.81;;;9.32;100.00
36600;BME280;35385;55.668;37.508;2023-04-04T03:42:48;99156.56;;;9.35;100.00
36600;BME280;35385;55.668;37.508;2023-04-04T03:43:50;99157.66;;;9.32;100.00
36600;BME280;35385;55.668;37.508;2023-04-04T03:44:51;99159.88;;;9.27;100.00
36600;BME280;35385;55.668;37.508;2023-04-04T03:45:52;99159.22;;;9.35;100.00
36600;BME280;35385;55.668;37.508;2023-04-04T03:46:53;99158.81;;;9.39;100.00
36600;BME280;35385;55.668;37.508;2023-04-04T03:47:53;99155.06;;;9.42;100.00
36600;BME280;35385;55.668;37.508;2023-04-04T03:48:54;99142.56;;;9.42;100.00
36600;BME280;35385;55.668;37.508;2023-04-04T03:49:55;99141.59;;;9.43;100.00
36600;BME280;35385;55.668;37.508;2023-04-04T03:50:58;99154.84;;;9.54;100.00
36600;BME280;35385;55.668;37.508;2023-04-04T03:51:59;99104.88;;;9.26;100.00
36600;BME280;35385;55.668;37.508;2023-04-04T03:53:01;99153.16;;;9.53;100.00
36600;BME280;35385;55.668;37.508;2023-04-04T03:54:02;99066.31;;;9.00;100.00
36600;BME280;35385;55.668;37.508;2023-04-04T03:55:02;99144.38;;;9.42;100.00
36600;BME280;35385;55.668;37.508;2023-04-04T03:56:03;99104.44;;;9.21;100.00
36600;BME280;35385;55.668;37.508;2023-04-04T03:57:04;99146.97;;;9.53;100.00
36600;BME280;35385;55.668;37.508;2023-04-04T03:58:05;99157.72;;;9.63;100.00
36600;BME280;35385;55.668;37.508;2023-04-04T03:59:06;99123.91;;;9.42;100.00
36600;BME280;35385;55.668;37.508;2023-04-04T04:00:07;99119.16;;;9.46;100.00
36600;BME280;35385;55.668;37.508;2023-04-04T04:01:08;99147.03;;;9.63;100.00
36600;BME280;35385;55.668;37.508;2023-04-04T04:02:08;99145.88;;;9.55;100.00
36600;BME280;35385;55.668;37.508;2023-04-04T04:03:09;99151.28;;;9.44;100.00
36600;BME280;35385;55.668;37.508;2023-04-04T04:04:09;99099.38;;;9.18;100.00
36600;BME280;35385;55.668;37.508;2023-04-04T04:05:10;99136.25;;;9.43;100.00
36600;BME280;35385;55.668;37.508;2023-04-04T04:06:11;99152.47;;;9.51;100.00
36600;BME280;35385;55.668;37.508;2023-04-04T04:07:12;99137.97;;;9.44;100.00
36600;BME280;35385;55.668;37.508;2023-04-04T04:08:12;99145.16;;;9.53;100.00
36600;BME280;35385;55.668;37.508;2023-04-04T04:09:13;99149.50;;;9.54;100.00
36600;BME280;35385;55.668;37.508;2023-04-04T04:10:14;99144.47;;;9.51;100.00
36600;BME280;35385;55.668;37.508;2023-04-04T04:11:14;99150.94;;;9.58;100.00
36600;BME280;35385;55.668;37.508;2023-04-04T04:12:15;99108.31;;;9.38;100.00
36600;BME280;35385;55.668;37.508;2023-04-04T04:13:16;99143.56;;;9.72;100.00
36600;BME280;35385;55.668;37.508;2023-04-04T04:14:16;99124.25;;;9.49;100.00
36600;BME280;35385;55.668;37.508;2023-04-04T04:15:17;99096.13;;;9.35;100.00
36600;BME280;35385;55.668;37.508;2023-04-04T04:16:18;99154.34;;;9.70;100.00
36600;BME280;35385;55.668;37.508;2023-04-04T04:17:18;99140.44;;;9.67;100.00
36600;BME280;35385;55.668;37.508;2023-04-04T04:18:19;99156.66;;;9.84;100.00
36600;BME280;35385;55.668;37.508;2023-04-04T04:19:19;99151.91;;;9.88;100.00
36600;BME280;35385;55.668;37.508;2023-04-04T04:20:20;99141.34;;;9.77;100.00
36600;BME280;35385;55.668;37.508;2023-04-04T04:21:20;99155.09;;;9.82;100.00
36600;BME280;35385;55.668;37.508;2023-04-04T04:22:21;99159.75;;;9.80;100.00
36600;BME280;35385;55.668;37.508;2023-04-04T04:23:22;99145.75;;;9.87;100.00
36600;BME280;35385;55.668;37.508;2023-04-04T04:24:22;99140.66;;;9.84;100.00
36600;BME280;35385;55.668;37.508;2023-04-04T04:25:23;99149.00;;;9.91;100.00
36600;BME280;35385;55.668;37.508;2023-04-04T04:26:23;99151.94;;;9.98;100.00
36600;BME280;35385;55.668;37.508;2023-04-04T04:27:25;99151.22;;;9.96;100.00
36600;BME280;35385;55.668;37.508;2023-04-04T04:28:25;99148.84;;;9.92;100.00
36600;BME280;35385;55.668;37.508;2023-04-04T04:29:26;99154.09;;;10.04;100.00
36600;BME280;35385;55.668;37.508;2023-04-04T04:30:27;99116.50;;;9.76;100.00
36600;BME280;35385;55.668;37.508;2023-04-04T04:31:27;99152.38;;;9.93;100.00
36600;BME280;35385;55.668;37.508;2023-04-04T04:32:28;99108.13;;;9.50;100.00
36600;BME280;35385;55.668;37.508;2023-04-04T04:33:28;99149.22;;;9.78;100.00
36600;BME280;35385;55.668;37.508;2023-04-04T04:34:29;99153.88;;;9.86;100.00
36600;BME280;35385;55.668;37.508;2023-04-04T04:35:30;99163.16;;;9.91;100.00
36600;BME280;35385;55.668;37.508;2023-04-04T04:36:31;99147.69;;;9.85;100.00
36600;BME280;35385;55.668;37.508;2023-04-04T04:37:31;99155.31;;;9.90;100.00
36600;BME280;35385;55.668;37.508;2023-04-04T04:38:32;99157.00;;;9.91;100.00
36600;BME280;35385;55.668;37.508;2023-04-04T04:39:33;99155.03;;;9.93;100.00
36600;BME280;35385;55.668;37.508;2023-04-04T04:40:34;99151.81;;;9.99;100.00
36600;BME280;35385;55.668;37.508;2023-04-04T04:41:35;99153.69;;;10.08;100.00
36600;BME280;35385;55.668;37.508;2023-04-04T04:42:36;99153.13;;;10.14;100.00
36600;BME280;35385;55.668;37.508;2023-04-04T04:43:36;99125.50;;;9.85;100.00
36600;BME280;35385;55.668;37.508;2023-04-04T04:44:37;99158.31;;;10.16;100.00
36600;BME280;35385;55.668;37.508;2023-04-04T04:45:40;99153.94;;;10.05;100.00
36600;BME280;35385;55.668;37.508;2023-04-04T04:46:41;99154.75;;;9.96;100.00
36600;BME280;35385;55.668;37.508;2023-04-04T04:47:41;99159.41;;;9.94;100.00
36600;BME280;35385;55.668;37.508;2023-04-04T04:48:42;99165.47;;;10.06;100.00
36600;BME280;35385;55.668;37.508;2023-04-04T04:49:43;99157.34;;;10.17;100.00
36600;BME280;35385;55.668;37.508;2023-04-04T04:50:47;99154.59;;;10.28;100.00
36600;BME280;35385;55.668;37.508;2023-04-04T04:51:47;99143.78;;;10.30;100.00
36600;BME280;35385;55.668;37.508;2023-04-04T04:52:51;99153.75;;;10.27;100.00
36600;BME280;35385;55.668;37.508;2023-04-04T04:53:51;99151.25;;;10.36;100.00
36600;BME280;35385;55.668;37.508;2023-04-04T04:54:52;99159.13;;;10.47;100.00
36600;BME280;35385;55.668;37.508;2023-04-04T04:55:55;99147.44;;;10.28;100.00
36600;BME280;35385;55.668;37.508;2023-04-04T04:56:55;99137.91;;;10.36;100.00
36600;BME280;35385;55.668;37.508;2023-04-04T04:57:56;99160.56;;;10.51;100.00
36600;BME280;35385;55.668;37.508;2023-04-04T04:58:57;99145.94;;;10.45;100.00
36600;BME280;35385;55.668;37.508;2023-04-04T04:59:57;99126.16;;;10.17;100.00
36600;BME280;35385;55.668;37.508;2023-04-04T05:00:58;99109.31;;;10.07;100.00
36600;BME280;35385;55.668;37.508;2023-04-04T05:01:58;99151.66;;;10.41;100.00
36600;BME280;35385;55.668;37.508;2023-04-04T05:02:59;99148.31;;;10.39;100.00
36600;BME280;35385;55.668;37.508;2023-04-04T05:04:00;99147.75;;;10.45;100.00
36600;BME280;35385;55.668;37.508;2023-04-04T05:05:00;99151.28;;;10.55;100.00
36600;BME280;35385;55.668;37.508;2023-04-04T05:06:01;99136.09;;;10.46;100.00
36600;BME280;35385;55.668;37.508;2023-04-04T05:07:01;99150.41;;;10.54;100.00
36600;BME280;35385;55.668;37.508;2023-04-04T05:08:03;99096.72;;;10.28;100.00
36600;BME280;35385;55.668;37.508;2023-04-04T05:09:04;99148.75;;;10.63;100.00
36600;BME280;35385;55.668;37.508;2023-04-04T05:10:05;99098.72;;;10.46;100.00
36600;BME280;35385;55.668;37.508;2023-04-04T05:11:06;99137.38;;;10.71;100.00
36600;BME280;35385;55.668;37.508;2023-04-04T05:12:06;99138.78;;;10.65;100.00
36600;BME280;35385;55.668;37.508;2023-04-04T05:13:07;99122.31;;;10.70;100.00
36600;BME280;35385;55.668;37.508;2023-04-04T05:14:09;99107.00;;;10.62;100.00
36600;BME280;35385;55.668;37.508;2023-04-04T05:15:12;99140.75;;;10.92;100.00
36600;BME280;35385;55.668;37.508;2023-04-04T05:16:13;99140.03;;;10.99;100.00
36600;BME280;35385;55.668;37.508;2023-04-04T05:17:13;99150.59;;;11.01;100.00
36600;BME280;35385;55.668;37.508;2023-04-04T05:18:14;99142.59;;;11.11;100.00
36600;BME280;35385;55.668;37.508;2023-04-04T05:19:15;99142.44;;;11.03;100.00
36600;BME280;35385;55.668;37.508;2023-04-04T05:20:16;99093.66;;;10.43;100.00
36600;BME280;35385;55.668;37.508;2023-04-04T05:21:16;99142.44;;;10.83;100.00
36600;BME280;35385;55.668;37.508;2023-04-04T05:22:17;99140.91;;;10.90;100.00
36600;BME280;35385;55.668;37.508;2023-04-04T05:23:17;99138.66;;;10.95;100.00
36600;BME280;35385;55.668;37.508;2023-04-04T05:24:18;99125.41;;;11.04;100.00